Time;durP1;ratioP1;P1;durP2;ratioP2;P2;SDS_P1;SDS_P2;PMS_P1;PMS_P2;Temp;Humidity;BMP_temperature;BMP_pressure;BME280_temperature;BME280_humidity;BME280_pressure;Samples;Min_cycle;Max_cycle;Signal;HPM_P1;HPM_P2
2022/04/29 00:01:10;;;;;;;130.20;89.35;;;;;;;;;;7331295;19;162578;-15
2022/04/29 00:03:42;;;;;;;125.50;85.20;;;;;;;;;;7333989;19;154277;-16
2022/04/29 00:06:13;;;;;;;124.03;83.68;;;;;;;;;;7333690;19;153738;-17
2022/04/29 00:08:44;;;;;;;116.07;80.00;;;;;;;;;;7336459;19;161953;-15
2022/04/29 00:11:16;;;;;;;118.55;80.18;;;;;;;;;;7333281;19;162746;-14
2022/04/29 00:13:47;;;;;;;126.95;86.78;;;;;;;;;;7333837;19;153799;-13
2022/04/29 00:16:22;;;;;;;121.97;86.72;;;;;;;;;;7333625;19;153789;-15
2022/04/29 00:18:54;;;;;;;123.50;87.50;;;;;;;;;;7332186;19;162050;-17
2022/04/29 00:21:26;;;;;;;113.97;80.05;;;;;;;;;;7328652;19;162979;-16
2022/04/29 00:23:57;;;;;;;117.15;79.57;;;;;;;;;;7336803;19;153941;-17
2022/04/29 00:26:28;;;;;;;118.97;82.35;;;;;;;;;;7335821;19;153606;-17
2022/04/29 00:29:00;;;;;;;124.22;81.68;;;;;;;;;;7333955;19;161807;-16
2022/04/29 00:31:34;;;;;;;121.32;84.50;;;;;;;;;;7334321;19;162834;-16
2022/04/29 00:34:05;;;;;;;117.50;81.60;;;;;;;;;;7334727;19;154290;-15
2022/04/29 00:36:37;;;;;;;113.78;81.07;;;;;;;;;;7335954;19;153649;-16
2022/04/29 00:39:08;;;;;;;114.65;77.13;;;;;;;;;;7335865;19;162055;-14
2022/04/29 00:41:44;;;;;;;102.68;71.25;;;;;;;;;;7333510;19;162510;-16
2022/04/29 00:44:16;;;;;;;109.10;74.60;;;;;;;;;;7334113;19;154110;-17
2022/04/29 00:46:51;;;;;;;110.97;74.13;;;;;;;;;;7336267;19;153788;-15
2022/04/29 00:49:22;;;;;;;114.93;78.97;;;;;;;;;;7335539;19;161960;-16
2022/04/29 00:51:53;;;;;;;107.40;72.65;;;;;;;;;;7335121;19;162442;-15
2022/04/29 00:54:30;;;;;;;109.90;74.47;;;;;;;;;;7335917;19;154182;-17
2022/04/29 00:57:03;;;;;;;104.22;72.32;;;;;;;;;;7333875;19;155667;-15
2022/04/29 00:59:40;;;;;;;91.53;66.03;;;;;;;;;;7332245;19;161756;-16
2022/04/29 01:02:15;;;;;;;93.97;65.15;;;;;;;;;;7333899;19;162746;-15
2022/04/29 01:04:55;;;;;;;89.38;62.60;;;;;;;;;;7334598;19;153887;-15
2022/04/29 01:07:26;;;;;;;87.30;61.42;;;;;;;;;;7333685;19;153811;-15
2022/04/29 01:09:58;;;;;;;88.97;61.22;;;;;;;;;;7331716;19;161842;-16
2022/04/29 01:12:31;;;;;;;87.82;59.60;;;;;;;;;;7333564;19;162548;-16
2022/04/29 01:15:08;;;;;;;88.60;60.83;;;;;;;;;;7335432;19;154329;-15
2022/04/29 01:17:43;;;;;;;86.55;59.10;;;;;;;;;;7333464;19;153626;-16
2022/04/29 01:20:17;;;;;;;87.90;57.88;;;;;;;;;;7334272;19;161800;-15
2022/04/29 01:22:50;;;;;;;83.22;58.00;;;;;;;;;;7333611;19;162482;-15
2022/04/29 01:25:22;;;;;;;85.10;59.45;;;;;;;;;;7333961;19;154424;-15
2022/04/29 01:27:56;;;;;;;83.65;56.22;;;;;;;;;;7333015;19;153730;-15
2022/04/29 01:30:29;;;;;;;79.53;55.83;;;;;;;;;;7333153;19;162495;-16
2022/04/29 01:33:02;;;;;;;82.27;57.73;;;;;;;;;;7332239;19;162431;-14
2022/04/29 01:35:34;;;;;;;77.70;54.28;;;;;;;;;;7330246;19;154137;-18
2022/04/29 01:38:08;;;;;;;80.75;55.13;;;;;;;;;;7330201;19;153673;-16
2022/04/29 01:40:39;;;;;;;81.50;55.78;;;;;;;;;;7330253;19;161818;-15
2022/04/29 01:43:17;;;;;;;76.40;53.33;;;;;;;;;;7329486;19;162763;-15
2022/04/29 01:45:49;;;;;;;78.97;54.97;;;;;;;;;;7329916;19;154102;-14
2022/04/29 01:48:33;;;;;;;79.00;55.13;;;;;;;;;;7329788;19;153690;-15
2022/04/29 01:51:23;;;;;;;78.43;53.30;;;;;;;;;;7330549;19;162030;-16
2022/04/29 01:54:00;;;;;;;72.75;51.38;;;;;;;;;;7329096;19;162375;-16
2022/04/29 01:56:37;;;;;;;75.68;53.05;;;;;;;;;;7330789;19;154061;-16
2022/04/29 01:59:11;;;;;;;77.25;52.95;;;;;;;;;;7330344;19;153632;-15
2022/04/29 02:01:56;;;;;;;73.35;51.47;;;;;;;;;;7327204;19;161745;-17
2022/04/29 02:04:28;;;;;;;77.53;51.42;;;;;;;;;;7330224;19;162371;-17
2022/04/29 02:06:59;;;;;;;75.35;50.65;;;;;;;;;;7329451;19;154109;-17
2022/04/29 02:09:34;;;;;;;71.47;48.28;;;;;;;;;;7329283;19;153673;-17
2022/04/29 02:12:11;;;;;;;70.43;47.70;;;;;;;;;;7328776;19;162138;-16
2022/04/29 02:15:01;;;;;;;68.22;48.13;;;;;;;;;;7329758;19;162511;-17
2022/04/29 02:17:43;;;;;;;67.13;46.63;;;;;;;;;;7329062;19;154242;-17
2022/04/29 02:20:15;;;;;;;68.07;46.80;;;;;;;;;;7329802;19;153440;-16
2022/04/29 02:22:47;;;;;;;69.50;47.70;;;;;;;;;;7326029;19;161903;-15
2022/04/29 02:25:31;;;;;;;68.60;48.30;;;;;;;;;;7329272;19;162301;-16
2022/04/29 02:28:04;;;;;;;66.82;46.40;;;;;;;;;;7330133;19;154180;-18
2022/04/29 02:30:36;;;;;;;62.22;43.88;;;;;;;;;;7328360;19;153744;-16
2022/04/29 02:33:10;;;;;;;65.27;44.20;;;;;;;;;;7327178;19;162053;-18
2022/04/29 02:35:45;;;;;;;64.53;44.30;;;;;;;;;;7327517;19;162636;-15
2022/04/29 02:38:19;;;;;;;65.63;44.47;;;;;;;;;;7328273;19;154396;-17
2022/04/29 02:40:54;;;;;;;61.45;42.75;;;;;;;;;;7328281;19;153870;-18
2022/04/29 02:43:26;;;;;;;61.67;43.22;;;;;;;;;;7327943;19;161935;-16
2022/04/29 02:45:57;;;;;;;61.42;41.88;;;;;;;;;;7332100;19;162419;-17
2022/04/29 02:48:28;;;;;;;61.05;41.92;;;;;;;;;;7335129;19;154050;-17
2022/04/29 02:51:00;;;;;;;61.67;41.78;;;;;;;;;;7336258;19;153571;-17
2022/04/29 02:53:31;;;;;;;57.40;41.45;;;;;;;;;;7334399;19;162117;-18
2022/04/29 02:56:06;;;;;;;59.80;42.22;;;;;;;;;;7334395;19;162283;-17
2022/04/29 02:58:56;;;;;;;61.13;40.67;;;;;;;;;;7336020;19;154458;-15
2022/04/29 03:01:27;;;;;;;58.05;40.60;;;;;;;;;;7334179;19;153372;-16
2022/04/29 03:03:59;;;;;;;59.33;41.05;;;;;;;;;;7334102;19;162286;-16
2022/04/29 03:06:30;;;;;;;56.15;39.40;;;;;;;;;;7335155;19;162535;-13
2022/04/29 03:09:01;;;;;;;55.88;39.70;;;;;;;;;;7334397;19;154153;-16
2022/04/29 03:11:36;;;;;;;57.70;40.10;;;;;;;;;;7334417;19;153981;-15
2022/04/29 03:14:07;;;;;;;52.80;39.08;;;;;;;;;;7333874;19;162180;-15
2022/04/29 03:16:39;;;;;;;56.95;39.13;;;;;;;;;;7335068;19;162531;-13
2022/04/29 03:19:11;;;;;;;54.60;38.72;;;;;;;;;;7334053;19;154466;-16
2022/04/29 03:21:42;;;;;;;54.67;38.50;;;;;;;;;;7333533;19;153693;-13
2022/04/29 03:24:14;;;;;;;50.20;35.92;;;;;;;;;;7334814;19;161996;-15
2022/04/29 03:26:47;;;;;;;52.92;37.08;;;;;;;;;;7333579;19;162511;-15
2022/04/29 03:29:19;;;;;;;55.88;38.00;;;;;;;;;;7333816;19;154069;-16
2022/04/29 03:31:50;;;;;;;53.13;37.30;;;;;;;;;;7333482;19;154007;-18
2022/04/29 03:34:37;;;;;;;49.13;35.50;;;;;;;;;;7332268;19;161886;-17
2022/04/29 03:37:08;;;;;;;50.92;34.47;;;;;;;;;;7333088;19;163823;-15
2022/04/29 03:39:39;;;;;;;48.83;35.08;;;;;;;;;;7334865;19;154172;-14
2022/04/29 03:42:13;;;;;;;51.83;36.35;;;;;;;;;;7332819;19;154062;-18
2022/04/29 03:44:45;;;;;;;51.92;35.55;;;;;;;;;;7333133;19;161883;-16
2022/04/29 03:47:17;;;;;;;47.63;33.25;;;;;;;;;;7333095;19;162696;-17
2022/04/29 03:50:01;;;;;;;49.85;33.72;;;;;;;;;;7333379;19;154319;-17
2022/04/29 03:52:50;;;;;;;47.75;33.25;;;;;;;;;;7333403;19;153559;-17
2022/04/29 03:55:22;;;;;;;46.55;33.13;;;;;;;;;;7332639;19;161827;-16
2022/04/29 03:57:57;;;;;;;44.10;33.13;;;;;;;;;;7332733;19;162369;-15
2022/04/29 04:00:31;;;;;;;47.33;32.35;;;;;;;;;;7332887;19;154078;-15
2022/04/29 04:03:05;;;;;;;44.80;31.40;;;;;;;;;;7331581;19;153780;-17
2022/04/29 04:06:49;;;;;;;45.70;32.53;;;;;;;;;;7336063;19;162001;-16
2022/04/29 04:08:30;;;;;;;46.13;32.33;;;;;;;;;;7333369;19;162383;-16
2022/04/29 04:11:01;;;;;;;50.17;32.65;;;;;;;;;;7332798;19;154050;-17
2022/04/29 04:13:35;;;;;;;43.67;31.35;;;;;;;;;;7333928;19;153400;-16
2022/04/29 04:16:26;;;;;;;47.38;31.75;;;;;;;;;;7333430;19;162136;-15
2022/04/29 04:18:58;;;;;;;42.38;31.15;;;;;;;;;;7332498;19;162476;-15
2022/04/29 04:21:30;;;;;;;43.08;29.30;;;;;;;;;;7332531;19;154047;-18
2022/04/29 04:24:03;;;;;;;43.40;30.50;;;;;;;;;;7330054;19;153720;-15
2022/04/29 04:26:34;;;;;;;41.53;30.50;;;;;;;;;;7331526;19;162358;-15
2022/04/29 04:29:12;;;;;;;42.65;30.20;;;;;;;;;;7336256;19;162465;-14
2022/04/29 04:31:47;;;;;;;42.40;30.33;;;;;;;;;;7332345;19;153991;-14
2022/04/29 04:37:03;;;;;;;44.35;29.42;;;;;;;;;;7331772;19;161916;-16
2022/04/29 04:39:34;;;;;;;40.55;29.73;;;;;;;;;;7331567;19;162406;-14
2022/04/29 04:42:11;;;;;;;38.20;28.20;;;;;;;;;;7332077;19;154099;-15
2022/04/29 04:44:52;;;;;;;43.38;29.40;;;;;;;;;;7332060;19;153445;-18
2022/04/29 04:47:25;;;;;;;39.95;28.98;;;;;;;;;;7331531;19;162161;-18
2022/04/29 04:50:16;;;;;;;42.75;30.13;;;;;;;;;;7330688;19;163169;-17
2022/04/29 04:52:47;;;;;;;37.70;27.65;;;;;;;;;;7331542;19;154228;-17
2022/04/29 04:55:19;;;;;;;41.97;28.58;;;;;;;;;;7331328;19;153919;-12
2022/04/29 04:57:50;;;;;;;38.33;26.80;;;;;;;;;;7331191;19;161973;-17
2022/04/29 05:00:25;;;;;;;41.15;28.45;;;;;;;;;;7331282;19;162421;-18
2022/04/29 05:03:18;;;;;;;40.17;27.63;;;;;;;;;;7331312;19;154204;-15
2022/04/29 05:06:12;;;;;;;35.92;27.05;;;;;;;;;;7332901;19;153631;-16
2022/04/29 05:08:43;;;;;;;36.92;26.70;;;;;;;;;;7330200;19;161534;-17
2022/04/29 05:11:15;;;;;;;35.17;25.73;;;;;;;;;;7330675;19;162520;-23
2022/04/29 05:13:48;;;;;;;38.08;26.88;;;;;;;;;;7330925;19;154113;-14
2022/04/29 05:16:22;;;;;;;39.05;26.23;;;;;;;;;;7330910;19;153810;-15
2022/04/29 05:19:14;;;;;;;29.50;20.30;;;;;;;;;;7331618;19;162012;-16
2022/04/29 05:21:46;;;;;;;25.35;18.05;;;;;;;;;;7330655;19;162368;-16
2022/04/29 05:24:17;;;;;;;20.48;14.68;;;;;;;;;;7329059;19;154090;-18
2022/04/29 05:27:10;;;;;;;20.08;12.07;;;;;;;;;;7332154;19;153661;-14
2022/04/29 05:30:02;;;;;;;13.70;9.43;;;;;;;;;;7329609;19;162049;-16
2022/04/29 05:33:15;;;;;;;10.73;7.78;;;;;;;;;;7330672;19;162409;-15
2022/04/29 05:36:07;;;;;;;13.80;9.40;;;;;;;;;;7332003;19;154183;-15
2022/04/29 05:44:21;;;;;;;11.48;7.90;;;;;;;;;;7328292;19;162400;-16
2022/04/29 05:46:53;;;;;;;9.82;7.72;;;;;;;;;;7330287;19;154068;-16
2022/04/29 05:49:29;;;;;;;11.20;7.32;;;;;;;;;;7330766;19;153370;-16
2022/04/29 05:52:02;;;;;;;12.05;7.47;;;;;;;;;;7330903;19;161847;-15
2022/04/29 05:54:37;;;;;;;10.10;7.43;;;;;;;;;;7330715;19;162620;-14
2022/04/29 05:57:12;;;;;;;7.65;6.80;;;;;;;;;;7330122;19;154113;-16
2022/04/29 05:59:43;;;;;;;11.18;7.82;;;;;;;;;;7329747;19;153806;-14
2022/04/29 06:02:33;;;;;;;9.80;6.90;;;;;;;;;;7332643;19;161890;-18
2022/04/29 06:05:15;;;;;;;9.60;7.03;;;;;;;;;;7326740;19;162501;-17
2022/04/29 06:07:51;;;;;;;9.13;6.85;;;;;;;;;;7329622;19;154101;-16
2022/04/29 06:10:42;;;;;;;9.48;7.32;;;;;;;;;;7329254;19;153768;-16
2022/04/29 06:13:14;;;;;;;11.18;7.65;;;;;;;;;;7328870;19;161874;-18
2022/04/29 06:16:11;;;;;;;10.40;6.82;;;;;;;;;;7329277;19;162645;-17
2022/04/29 06:19:01;;;;;;;9.45;6.65;;;;;;;;;;7329998;19;153972;-16
2022/04/29 06:21:55;;;;;;;12.45;7.45;;;;;;;;;;7329742;19;153527;-15
2022/04/29 06:24:26;;;;;;;11.38;6.43;;;;;;;;;;7327746;19;161862;-14
2022/04/29 06:26:58;;;;;;;10.23;6.53;;;;;;;;;;7328046;19;163078;-17
2022/04/29 06:29:30;;;;;;;9.47;6.23;;;;;;;;;;7328606;19;154062;-14
2022/04/29 06:32:02;;;;;;;9.00;6.22;;;;;;;;;;7328504;19;153576;-16
2022/04/29 06:34:52;;;;;;;8.85;6.53;;;;;;;;;;7327053;19;161866;-17
2022/04/29 06:37:26;;;;;;;8.45;5.82;;;;;;;;;;7328344;19;162399;-18
2022/04/29 06:40:18;;;;;;;9.32;6.32;;;;;;;;;;7329818;19;154006;-16
2022/04/29 06:42:56;;;;;;;7.32;5.78;;;;;;;;;;7328358;19;153819;-14
2022/04/29 06:45:46;;;;;;;8.32;5.70;;;;;;;;;;7326443;19;162171;-16
2022/04/29 06:48:45;;;;;;;18.10;5.43;;;;;;;;;;7327065;19;162516;-13
2022/04/29 06:51:35;;;;;;;9.05;5.25;;;;;;;;;;7329064;19;154111;-15
2022/04/29 06:54:15;;;;;;;7.30;5.05;;;;;;;;;;7328779;19;153514;-16
2022/04/29 06:56:55;;;;;;;8.98;4.85;;;;;;;;;;7327467;19;161836;-15
2022/04/29 06:59:26;;;;;;;9.10;6.20;;;;;;;;;;7327420;19;162379;-16
2022/04/29 07:01:58;;;;;;;10.95;7.65;;;;;;;;;;7327605;19;154345;-14
2022/04/29 07:04:32;;;;;;;13.10;7.78;;;;;;;;;;7326589;19;153474;-14
2022/04/29 07:07:04;;;;;;;12.88;7.60;;;;;;;;;;7327124;19;162764;-16
2022/04/29 07:09:43;;;;;;;9.48;6.88;;;;;;;;;;7327010;19;162381;-14
2022/04/29 07:13:03;;;;;;;9.52;6.80;;;;;;;;;;7328475;19;154155;-17
2022/04/29 07:15:34;;;;;;;9.27;6.63;;;;;;;;;;7328461;19;154028;-16
2022/04/29 07:18:21;;;;;;;13.63;6.68;;;;;;;;;;7326885;19;162216;-16
2022/04/29 07:20:53;;;;;;;9.95;7.05;;;;;;;;;;7326409;19;162530;-15
2022/04/29 07:23:24;;;;;;;10.98;6.88;;;;;;;;;;7327009;19;154067;-14
2022/04/29 07:25:58;;;;;;;8.93;6.40;;;;;;;;;;7324499;19;153763;-14
2022/04/29 07:28:29;;;;;;;9.23;6.13;;;;;;;;;;7327336;19;162082;-14
2022/04/29 07:31:01;;;;;;;11.25;6.28;;;;;;;;;;7327613;19;162424;-17
2022/04/29 07:34:08;;;;;;;10.15;6.55;;;;;;;;;;7330111;19;154298;-16
2022/04/29 07:42:22;;;;;;;7.00;6.28;;;;;;;;;;7333300;19;162640;-15
2022/04/29 07:44:53;;;;;;;9.27;6.65;;;;;;;;;;7332742;19;154095;-14
2022/04/29 07:47:42;;;;;;;11.23;6.75;;;;;;;;;;7333612;19;153623;-14
2022/04/29 07:50:29;;;;;;;7.15;6.05;;;;;;;;;;7333058;19;161881;-16
2022/04/29 07:53:02;;;;;;;9.07;6.38;;;;;;;;;;7332881;19;162657;-17
2022/04/29 07:55:33;;;;;;;7.03;6.22;;;;;;;;;;7333120;19;154128;-15
2022/04/29 07:58:09;;;;;;;9.32;6.57;;;;;;;;;;7333111;19;153572;-18
2022/04/29 08:00:40;;;;;;;7.80;6.13;;;;;;;;;;7332454;19;161875;-15
2022/04/29 08:03:29;;;;;;;7.72;5.60;;;;;;;;;;7332127;19;162467;-16
2022/04/29 08:06:05;;;;;;;6.93;5.68;;;;;;;;;;7333350;19;154796;-17
2022/04/29 08:08:38;;;;;;;9.95;6.45;;;;;;;;;;7332822;19;153549;-13
2022/04/29 08:11:18;;;;;;;9.25;6.45;;;;;;;;;;7332121;19;162406;-16
2022/04/29 08:14:12;;;;;;;7.57;5.95;;;;;;;;;;7333242;19;162368;-16
2022/04/29 08:17:17;;;;;;;6.60;5.65;;;;;;;;;;7333551;19;154055;-16
2022/04/29 08:19:54;;;;;;;9.95;6.32;;;;;;;;;;7332251;19;153578;-14
2022/04/29 08:22:27;;;;;;;8.48;5.65;;;;;;;;;;7331863;19;161818;-14
2022/04/29 08:24:59;;;;;;;6.90;5.40;;;;;;;;;;7332948;19;162560;-15
2022/04/29 08:27:31;;;;;;;6.70;5.20;;;;;;;;;;7332135;19;154316;-17
2022/04/29 08:30:07;;;;;;;6.60;5.20;;;;;;;;;;7332247;19;153580;-15
2022/04/29 08:32:42;;;;;;;6.82;5.85;;;;;;;;;;7331452;19;161882;-18
2022/04/29 08:35:28;;;;;;;6.63;5.18;;;;;;;;;;7331877;19;162325;-16
2022/04/29 08:38:00;;;;;;;7.53;5.68;;;;;;;;;;7331853;19;154063;-15
2022/04/29 08:40:46;;;;;;;6.95;5.55;;;;;;;;;;7331746;19;153702;-15
2022/04/29 08:43:22;;;;;;;9.27;5.90;;;;;;;;;;7328562;19;161952;-15
2022/04/29 08:46:00;;;;;;;8.38;5.05;;;;;;;;;;7328894;19;162381;-18
2022/04/29 08:48:51;;;;;;;6.60;5.50;;;;;;;;;;7332462;19;154237;-15
2022/04/29 08:51:23;;;;;;;6.28;5.20;;;;;;;;;;7332551;19;153696;-18
2022/04/29 08:53:54;;;;;;;6.43;5.60;;;;;;;;;;7332020;19;161790;-15
2022/04/29 08:59:10;;;;;;;5.72;4.93;;;;;;;;;;7332047;19;154084;-16
2022/04/29 09:01:46;;;;;;;7.33;5.70;;;;;;;;;;7332031;19;153384;-14
2022/04/29 09:04:17;;;;;;;5.88;5.00;;;;;;;;;;7331639;19;161829;-17
2022/04/29 09:06:51;;;;;;;5.90;5.15;;;;;;;;;;7329595;19;162448;-17
2022/04/29 09:09:23;;;;;;;7.60;5.53;;;;;;;;;;7332012;19;153961;-18
2022/04/29 09:12:16;;;;;;;5.33;4.83;;;;;;;;;;7330911;19;153565;-17
2022/04/29 09:14:47;;;;;;;5.78;4.97;;;;;;;;;;7331568;19;161905;-16
2022/04/29 09:17:31;;;;;;;6.32;4.82;;;;;;;;;;7331546;19;162288;-17
2022/04/29 09:20:04;;;;;;;7.07;4.80;;;;;;;;;;7331863;19;154322;-18
2022/04/29 09:22:40;;;;;;;5.50;4.95;;;;;;;;;;7331454;19;132675;-14
2022/04/29 09:25:38;;;;;;;6.63;5.20;;;;;;;;;;7330901;19;161582;-17
2022/04/29 09:28:28;;;;;;;6.43;4.85;;;;;;;;;;7331115;19;162485;-16
2022/04/29 09:31:16;;;;;;;8.93;5.30;;;;;;;;;;7330328;19;154311;-18
2022/04/29 09:34:00;;;;;;;6.13;4.97;;;;;;;;;;7329693;19;153350;-15
2022/04/29 09:36:35;;;;;;;8.93;5.10;;;;;;;;;;7331029;19;161882;-16
2022/04/29 09:41:56;;;;;;;5.40;4.40;;;;;;;;;;7331351;19;154047;-18
2022/04/29 09:44:33;;;;;;;5.30;4.55;;;;;;;;;;7328837;19;153732;-14
2022/04/29 09:47:13;;;;;;;8.73;4.80;;;;;;;;;;7329991;19;161898;-15
2022/04/29 09:49:57;;;;;;;7.18;4.35;;;;;;;;;;7328964;19;162682;-14
2022/04/29 09:52:30;;;;;;;;;;;;;;;;;;7335046;19;154119;-15
2022/04/29 09:55:13;;;;;;;6.32;4.22;;;;;;;;;;7330226;19;153366;-16
2022/04/29 09:57:51;;;;;;;8.13;4.45;;;;;;;;;;7330520;19;161982;-13
2022/04/29 10:00:23;;;;;;;6.13;4.53;;;;;;;;;;7330070;19;164023;-14
2022/04/29 10:02:55;;;;;;;5.85;4.55;;;;;;;;;;7334734;19;154132;-14
2022/04/29 10:05:32;;;;;;;7.45;4.47;;;;;;;;;;7329124;19;153807;-14
2022/04/29 10:08:09;;;;;;;7.47;4.03;;;;;;;;;;7326155;19;161843;-14
2022/04/29 10:10:41;;;;;;;4.90;4.22;;;;;;;;;;7329779;19;162354;-17
2022/04/29 10:13:13;;;;;;;7.10;4.28;;;;;;;;;;7328928;19;154269;-15
2022/04/29 10:16:05;;;;;;;7.85;4.18;;;;;;;;;;7329893;19;153811;-16
2022/04/29 10:22:08;;;;;;;7.53;4.20;;;;;;;;;;7332297;19;162214;-15
2022/04/29 10:24:42;;;;;;;6.65;4.03;;;;;;;;;;7331679;19;154136;-15
2022/04/29 10:27:15;;;;;;;5.50;4.00;;;;;;;;;;7328508;19;153583;-13
2022/04/29 10:29:46;;;;;;;6.63;3.92;;;;;;;;;;7329489;19;161806;-14
2022/04/29 10:32:18;;;;;;;4.35;3.78;;;;;;;;;;7328012;19;162404;-17
2022/04/29 10:34:49;;;;;;;3.95;3.65;;;;;;;;;;7329806;19;154113;-15
2022/04/29 10:37:37;;;;;;;7.80;3.67;;;;;;;;;;7328247;19;153607;-14
2022/04/29 10:40:13;;;;;;;4.13;3.55;;;;;;;;;;7328949;19;162034;-14
2022/04/29 10:43:09;;;;;;;4.75;3.78;;;;;;;;;;7326779;19;162572;-15
2022/04/29 10:46:19;;;;;;;6.47;4.07;;;;;;;;;;7330993;19;154232;-13
2022/04/29 10:48:58;;;;;;;6.95;3.67;;;;;;;;;;7332150;19;153631;-13
2022/04/29 10:51:53;;;;;;;3.65;3.35;;;;;;;;;;7330660;19;161815;-13
2022/04/29 10:54:53;;;;;;;4.30;3.17;;;;;;;;;;7331689;19;162471;-16
2022/04/29 10:57:40;;;;;;;5.25;3.60;;;;;;;;;;7330033;19;154280;-14
2022/04/29 11:00:14;;;;;;;;;;;;;;;;;;7330796;19;153739;-16
2022/04/29 11:02:51;;;;;;;4.43;3.20;;;;;;;;;;7330983;19;162050;-18
2022/04/29 11:05:38;;;;;;;4.87;3.33;;;;;;;;;;7329285;19;162443;-14
2022/04/29 11:08:11;;;;;;;4.50;3.35;;;;;;;;;;7335098;19;154128;-14
2022/04/29 11:10:59;;;;;;;3.83;3.13;;;;;;;;;;7337764;19;153905;-15
2022/04/29 11:13:47;;;;;;;5.10;3.10;;;;;;;;;;7329528;19;161839;-14
2022/04/29 11:16:52;;;;;;;4.80;3.45;;;;;;;;;;7338620;19;162598;-14
2022/04/29 11:19:45;;;;;;;6.75;4.35;;;;;;;;;;7338122;19;154164;-15
2022/04/29 11:25:04;;;;;;;3.30;3.00;;;;;;;;;;7333316;19;161797;-17
2022/04/29 11:28:03;;;;;;;4.07;3.10;;;;;;;;;;7333739;19;162788;-15
2022/04/29 11:31:05;;;;;;;3.65;3.10;;;;;;;;;;7335950;19;154070;-17
2022/04/29 11:33:42;;;;;;;3.10;2.90;;;;;;;;;;7334939;19;153541;-14
2022/04/29 11:36:15;;;;;;;4.50;3.17;;;;;;;;;;7338086;19;161836;-15
2022/04/29 11:38:47;;;;;;;;;;;;;;;;;;7335803;19;162313;-14
2022/04/29 11:41:21;;;;;;;3.42;3.10;;;;;;;;;;7335555;19;154359;-14
2022/04/29 11:43:54;;;;;;;4.10;3.00;;;;;;;;;;7337684;19;153881;-15
2022/04/29 11:46:26;;;;;;;3.20;2.90;;;;;;;;;;7338118;19;162241;-14
2022/04/29 11:49:00;;;;;;;3.38;2.92;;;;;;;;;;7332131;19;162912;-13
2022/04/29 11:51:32;;;;;;;4.45;2.80;;;;;;;;;;7334400;19;154069;-14
2022/04/29 11:54:06;;;;;;;3.58;3.00;;;;;;;;;;7337033;19;153617;-14
2022/04/29 11:56:39;;;;;;;3.40;2.92;;;;;;;;;;7337719;19;161774;-14
2022/04/29 11:59:17;;;;;;;3.08;2.78;;;;;;;;;;7334312;19;162513;-13
2022/04/29 12:01:48;;;;;;;3.28;2.85;;;;;;;;;;7336940;19;154129;-13
2022/04/29 12:04:19;;;;;;;8.45;3.20;;;;;;;;;;7337114;19;153583;-13
2022/04/29 12:07:08;;;;;;;4.35;2.95;;;;;;;;;;7335090;19;161889;-16
2022/04/29 12:09:40;;;;;;;7.15;3.45;;;;;;;;;;7329421;19;162518;-18
2022/04/29 12:12:25;;;;;;;3.10;2.80;;;;;;;;;;7335794;19;154180;-17
2022/04/29 12:15:01;;;;;;;2.95;2.75;;;;;;;;;;7336280;19;153551;-16
2022/04/29 12:17:37;;;;;;;2.80;2.53;;;;;;;;;;7336923;19;161804;-15
2022/04/29 12:20:10;;;;;;;4.07;2.83;;;;;;;;;;7336530;19;162427;-16
2022/04/29 12:22:42;;;;;;;3.25;2.63;;;;;;;;;;7333191;19;154121;-15
2022/04/29 12:25:24;;;;;;;3.28;2.70;;;;;;;;;;7334776;19;153526;-16
2022/04/29 12:28:11;;;;;;;3.70;2.70;;;;;;;;;;7335586;19;161882;-16
2022/04/29 12:36:31;;;;;;;5.90;2.42;;;;;;;;;;7333373;19;153539;-15
2022/04/29 12:39:07;;;;;;;4.17;2.47;;;;;;;;;;7336828;19;162053;-15
2022/04/29 12:41:38;;;;;;;3.60;2.25;;;;;;;;;;7335658;19;162423;-15
2022/04/29 12:45:03;;;;;;;3.55;2.30;;;;;;;;;;7337005;19;154502;-15
2022/04/29 12:47:24;;;;;;;2.33;2.13;;;;;;;;;;7336424;19;153545;-16
2022/04/29 12:49:56;;;;;;;5.10;2.80;;;;;;;;;;7333327;19;161843;-14
2022/04/29 12:52:27;;;;;;;3.05;2.70;;;;;;;;;;7331361;19;162579;-16
2022/04/29 12:55:02;;;;;;;6.60;3.13;;;;;;;;;;7335627;19;154135;-16
2022/04/29 12:57:33;;;;;;;4.88;2.63;;;;;;;;;;7332689;19;153488;-15
2022/04/29 13:00:08;;;;;;;2.88;2.67;;;;;;;;;;7335860;19;161836;-15
2022/04/29 13:02:42;;;;;;;2.28;2.17;;;;;;;;;;7332931;19;162368;-16
2022/04/29 13:05:14;;;;;;;3.40;2.38;;;;;;;;;;7334719;19;154044;-16
2022/04/29 13:07:50;;;;;;;2.63;2.38;;;;;;;;;;7336417;19;153755;-14
2022/04/29 13:10:22;;;;;;;4.75;2.50;;;;;;;;;;7336568;19;162031;-14
2022/04/29 13:12:54;;;;;;;2.97;2.67;;;;;;;;;;7333266;19;162373;-17
2022/04/29 13:15:38;;;;;;;2.97;2.72;;;;;;;;;;7335269;19;154521;-15
2022/04/29 13:18:15;;;;;;;3.10;2.40;;;;;;;;;;7334866;19;153913;-16
2022/04/29 13:20:47;;;;;;;3.28;2.80;;;;;;;;;;7332811;19;161773;-16
2022/04/29 13:23:24;;;;;;;4.43;2.55;;;;;;;;;;7332659;19;162725;-16
2022/04/29 13:26:03;;;;;;;3.88;3.03;;;;;;;;;;7333210;19;154080;-14
2022/04/29 13:28:35;;;;;;;9.70;4.67;;;;;;;;;;7331593;19;153621;-16
2022/04/29 13:31:07;;;;;;;7.67;5.10;;;;;;;;;;7334543;19;161834;-14
2022/04/29 13:33:41;;;;;;;4.43;4.03;;;;;;;;;;7332656;19;162653;-15
2022/04/29 13:36:13;;;;;;;7.00;4.50;;;;;;;;;;7334210;19;154494;-15
2022/04/29 13:38:44;;;;;;;4.78;4.28;;;;;;;;;;7334150;19;153687;-16
2022/04/29 13:41:18;;;;;;;5.07;4.28;;;;;;;;;;7334379;19;161854;-17
2022/04/29 13:43:52;;;;;;;5.65;4.28;;;;;;;;;;7335416;19;162601;-17
2022/04/29 13:46:41;;;;;;;6.00;4.20;;;;;;;;;;7332288;19;153786;-17
2022/04/29 13:49:27;;;;;;;7.07;4.15;;;;;;;;;;7330957;19;153792;-18
2022/04/29 13:53:07;;;;;;;7.80;4.05;;;;;;;;;;7334352;19;161969;-17
2022/04/29 13:54:57;;;;;;;5.07;3.55;;;;;;;;;;7331584;19;163351;-16
2022/04/29 13:57:30;;;;;;;4.13;3.78;;;;;;;;;;7331735;19;154112;-17
2022/04/29 14:00:03;;;;;;;5.63;4.70;;;;;;;;;;7330176;19;153598;-17
2022/04/29 14:02:42;;;;;;;5.55;3.97;;;;;;;;;;7329779;19;161813;-16
2022/04/29 14:05:16;;;;;;;6.72;3.60;;;;;;;;;;7330650;19;162466;-15
2022/04/29 14:07:48;;;;;;;5.13;3.60;;;;;;;;;;7331081;19;154472;-18
2022/04/29 14:10:19;;;;;;;6.25;3.78;;;;;;;;;;7329026;19;153537;-17
2022/04/29 14:12:51;;;;;;;7.25;3.95;;;;;;;;;;7330652;19;162194;-16
2022/04/29 14:15:22;;;;;;;6.47;3.78;;;;;;;;;;7330421;19;162525;-15
2022/04/29 14:17:58;;;;;;;5.80;3.75;;;;;;;;;;7331103;19;153987;-17
2022/04/29 14:20:32;;;;;;;5.57;3.70;;;;;;;;;;7330688;19;153520;-15
2022/04/29 14:23:03;;;;;;;4.90;3.92;;;;;;;;;;7330361;19;161986;-16
2022/04/29 14:25:35;;;;;;;4.45;3.28;;;;;;;;;;7332050;19;162277;-16
2022/04/29 14:28:07;;;;;;;3.63;3.33;;;;;;;;;;7334190;19;154128;-15
2022/04/29 14:30:38;;;;;;;3.78;3.20;;;;;;;;;;7328098;19;153831;-15
2022/04/29 14:33:10;;;;;;;4.90;3.33;;;;;;;;;;7330074;19;161874;-16
2022/04/29 14:35:45;;;;;;;5.93;3.93;;;;;;;;;;7332916;19;162414;-15
2022/04/29 14:38:18;;;;;;;3.80;3.40;;;;;;;;;;7329949;19;154121;-15
2022/04/29 14:40:51;;;;;;;6.82;3.60;;;;;;;;;;7326882;19;153867;-17
2022/04/29 14:43:23;;;;;;;3.85;3.40;;;;;;;;;;7329437;19;161917;-15
2022/04/29 14:45:54;;;;;;;4.68;3.42;;;;;;;;;;7329446;19;162356;-15
2022/04/29 14:48:25;;;;;;;5.30;2.90;;;;;;;;;;7329553;19;154087;-15
2022/04/29 14:51:00;;;;;;;3.53;3.22;;;;;;;;;;7326258;19;153616;-16
2022/04/29 14:53:33;;;;;;;7.18;3.55;;;;;;;;;;7329578;19;162000;-16
2022/04/29 14:56:05;;;;;;;8.68;3.33;;;;;;;;;;7329435;19;162380;-16
2022/04/29 14:58:36;;;;;;;5.10;3.60;;;;;;;;;;7329314;19;154027;-14
2022/04/29 15:01:08;;;;;;;4.78;3.22;;;;;;;;;;7329232;19;153739;-16
2022/04/29 15:03:41;;;;;;;4.32;3.08;;;;;;;;;;7328678;19;161840;-15
2022/04/29 15:06:15;;;;;;;2.80;2.45;;;;;;;;;;7328833;19;162444;-15
2022/04/29 15:08:46;;;;;;;4.63;3.28;;;;;;;;;;7329175;19;154182;-16
2022/04/29 15:16:45;;;;;;;3.15;2.70;;;;;;;;;;7327099;19;162403;-16
2022/04/29 15:19:16;;;;;;;2.88;2.65;;;;;;;;;;7328770;19;153772;-17
2022/04/29 15:21:50;;;;;;;4.45;3.08;;;;;;;;;;7328723;19;153564;-15
2022/04/29 15:24:22;;;;;;;6.18;2.85;;;;;;;;;;7326907;19;161965;-15
2022/04/29 15:26:54;;;;;;;4.60;2.67;;;;;;;;;;7328328;19;162657;-16
2022/04/29 15:29:25;;;;;;;6.35;3.25;;;;;;;;;;7328523;19;154010;-16
2022/04/29 15:31:57;;;;;;;3.63;2.90;;;;;;;;;;7328420;19;153711;-14
2022/04/29 15:34:28;;;;;;;3.80;2.58;;;;;;;;;;7324807;19;162136;-16
2022/04/29 15:37:02;;;;;;;3.90;2.90;;;;;;;;;;7327965;19;162530;-17
2022/04/29 15:39:34;;;;;;;4.45;2.88;;;;;;;;;;7328335;19;153649;-15
2022/04/29 15:42:07;;;;;;;4.85;2.97;;;;;;;;;;7328276;19;153496;-16
2022/04/29 15:44:41;;;;;;;3.38;2.40;;;;;;;;;;7326677;19;161841;-16
2022/04/29 15:47:12;;;;;;;2.63;2.42;;;;;;;;;;7327306;19;162637;-17
2022/04/29 15:49:43;;;;;;;2.88;2.58;;;;;;;;;;7326588;19;154491;-17
2022/04/29 15:52:17;;;;;;;4.80;2.83;;;;;;;;;;7330071;19;153654;-16
2022/04/29 15:54:49;;;;;;;3.90;2.80;;;;;;;;;;7338829;19;162130;-15